Time;durP1;ratioP1;P1;durP2;ratioP2;P2;SDS_P1;SDS_P2;PMS_P1;PMS_P2;Temp;Humidity;BMP_temperature;BMP_pressure;BME280_temperature;BME280_humidity;BME280_pressure;Samples;Min_cycle;Max_cycle;Signal;HPM_P1;HPM_P2
2023/05/31 00:02:09;;;;;;;3.60;3.25;;;;;;;;;;5075288;28;20193;-80
2023/05/31 00:04:36;;;;;;;3.78;2.75;;;;;;;;;;5075739;28;20201;-80
2023/05/31 00:07:05;;;;;;;4.43;3.45;;;;;;;;;;5071470;28;20200;-79
2023/05/31 00:09:33;;;;;;;3.33;3.03;;;;;;;;;;5092291;22;20218;-85
2023/05/31 00:12:01;;;;;;;3.60;3.28;;;;;;;;;;5082000;28;20227;-85
2023/05/31 00:14:29;;;;;;;4.43;3.80;;;;;;;;;;5076432;28;20223;-85
2023/05/31 00:16:57;;;;;;;3.40;3.10;;;;;;;;;;5077006;28;20205;-85
2023/05/31 00:19:24;;;;;;;4.10;3.28;;;;;;;;;;5057902;28;20200;-86
2023/05/31 00:21:52;;;;;;;4.75;3.70;;;;;;;;;;5076446;28;20755;-84
2023/05/31 00:24:19;;;;;;;3.33;2.92;;;;;;;;;;5076037;28;20264;-85
2023/05/31 00:26:47;;;;;;;3.20;2.90;;;;;;;;;;5075534;28;20635;-84
2023/05/31 00:29:14;;;;;;;6.43;4.72;;;;;;;;;;5076261;28;20596;-84
2023/05/31 00:31:44;;;;;;;4.28;3.15;;;;;;;;;;5070172;28;20663;-83
2023/05/31 00:34:12;;;;;;;3.60;3.08;;;;;;;;;;5076015;28;20235;-84
2023/05/31 00:36:39;;;;;;;3.53;3.22;;;;;;;;;;5076467;28;20278;-84
2023/05/31 00:39:07;;;;;;;3.85;3.30;;;;;;;;;;5075635;28;20224;-83
2023/05/31 00:41:34;;;;;;;4.13;2.97;;;;;;;;;;5076361;28;20256;-84
2023/05/31 00:44:01;;;;;;;3.42;3.08;;;;;;;;;;5074723;28;22005;-85
2023/05/31 00:46:32;;;;;;;3.05;2.75;;;;;;;;;;5074720;28;20676;-84
2023/05/31 00:49:02;;;;;;;6.55;3.17;;;;;;;;;;5076553;28;20284;-83
2023/05/31 00:51:32;;;;;;;3.08;2.78;;;;;;;;;;5076805;28;20213;-84
2023/05/31 00:54:01;;;;;;;3.65;3.20;;;;;;;;;;5073445;28;20225;-84
2023/05/31 00:56:28;;;;;;;3.65;3.05;;;;;;;;;;5075806;28;20240;-85
2023/05/31 00:58:57;;;;;;;3.15;2.90;;;;;;;;;;5075329;28;20250;-84
2023/05/31 01:01:27;;;;;;;3.35;2.90;;;;;;;;;;5076411;28;20776;-85
2023/05/31 01:03:56;;;;;;;3.97;3.42;;;;;;;;;;5074954;28;20296;-85
2023/05/31 01:06:25;;;;;;;5.13;3.03;;;;;;;;;;5075173;28;20653;-85
2023/05/31 01:08:53;;;;;;;5.55;2.90;;;;;;;;;;5070386;28;20240;-83
2023/05/31 01:11:28;;;;;;;4.63;3.15;;;;;;;;;;5075487;28;20252;-85
2023/05/31 01:14:02;;;;;;;2.90;2.70;;;;;;;;;;5075865;28;20272;-85
2023/05/31 01:16:36;;;;;;;3.97;3.58;;;;;;;;;;5075007;28;20211;-85
2023/05/31 01:19:07;;;;;;;3.42;3.03;;;;;;;;;;5075531;28;20205;-86
2023/05/31 01:21:53;;;;;;;3.42;2.80;;;;;;;;;;5075201;28;20224;-85
2023/05/31 01:24:39;;;;;;;3.30;2.83;;;;;;;;;;5071478;28;20231;-86
2023/05/31 01:27:09;;;;;;;3.42;3.05;;;;;;;;;;5075956;28;20227;-84
2023/05/31 01:29:38;;;;;;;4.03;3.08;;;;;;;;;;5075174;28;20204;-84
2023/05/31 01:32:07;;;;;;;3.58;2.92;;;;;;;;;;5076499;28;20263;-85
2023/05/31 01:34:35;;;;;;;3.30;3.00;;;;;;;;;;5074706;28;20204;-85
2023/05/31 01:37:02;;;;;;;3.22;2.95;;;;;;;;;;5059581;28;20291;-86
2023/05/31 01:39:30;;;;;;;7.18;3.30;;;;;;;;;;5074988;28;20220;-84
2023/05/31 01:41:58;;;;;;;6.13;3.40;;;;;;;;;;5076029;28;20222;-84
2023/05/31 01:44:27;;;;;;;4.18;3.00;;;;;;;;;;5067646;28;20300;-85
2023/05/31 01:46:54;;;;;;;2.78;2.58;;;;;;;;;;5074221;28;20247;-84
2023/05/31 01:49:22;;;;;;;3.53;3.22;;;;;;;;;;5073998;28;20197;-85
2023/05/31 01:51:50;;;;;;;4.85;2.72;;;;;;;;;;5074614;28;20681;-85
2023/05/31 01:54:18;;;;;;;5.43;3.28;;;;;;;;;;5074592;28;20219;-84
2023/05/31 01:56:47;;;;;;;2.80;2.55;;;;;;;;;;5073965;28;20311;-84
2023/05/31 01:59:15;;;;;;;4.45;2.50;;;;;;;;;;5068473;28;20679;-85
2023/05/31 02:01:44;;;;;;;3.45;2.83;;;;;;;;;;5055611;28;20245;-85
2023/05/31 02:04:11;;;;;;;7.03;3.47;;;;;;;;;;5094729;28;20196;-85
2023/05/31 02:06:39;;;;;;;3.10;2.83;;;;;;;;;;5085017;28;20223;-84
2023/05/31 02:09:07;;;;;;;2.97;2.70;;;;;;;;;;5067507;28;20270;-85
2023/05/31 02:11:35;;;;;;;3.53;2.70;;;;;;;;;;5075242;28;20236;-84
2023/05/31 02:14:02;;;;;;;2.72;2.35;;;;;;;;;;5074876;28;20201;-84
2023/05/31 02:16:30;;;;;;;3.13;2.70;;;;;;;;;;5076668;28;20248;-84
2023/05/31 02:18:59;;;;;;;2.80;2.50;;;;;;;;;;5072768;28;20199;-83
2023/05/31 02:21:27;;;;;;;3.05;2.72;;;;;;;;;;5079053;28;20724;-85
2023/05/31 02:23:54;;;;;;;3.38;3.08;;;;;;;;;;5069675;28;20661;-85
2023/05/31 02:26:23;;;;;;;3.50;3.17;;;;;;;;;;5078417;28;20279;-85
2023/05/31 02:28:51;;;;;;;3.35;2.92;;;;;;;;;;5076665;28;20730;-84
2023/05/31 02:31:18;;;;;;;3.25;2.95;;;;;;;;;;5079016;28;20323;-84
2023/05/31 02:33:46;;;;;;;3.53;3.22;;;;;;;;;;5078640;28;20260;-85
2023/05/31 02:36:14;;;;;;;4.03;2.67;;;;;;;;;;5078056;28;20275;-84
2023/05/31 02:38:42;;;;;;;3.30;3.03;;;;;;;;;;5068917;28;22052;-83
2023/05/31 02:41:10;;;;;;;3.72;3.15;;;;;;;;;;5078418;28;20224;-84
2023/05/31 02:43:37;;;;;;;4.30;3.55;;;;;;;;;;5070346;28;20570;-85
2023/05/31 02:46:05;;;;;;;4.25;3.47;;;;;;;;;;5078106;28;20205;-83
2023/05/31 02:48:32;;;;;;;4.32;3.13;;;;;;;;;;5077897;28;20205;-84
2023/05/31 02:53:30;;;;;;;3.75;3.30;;;;;;;;;;5067586;28;20233;-79
2023/05/31 02:55:58;;;;;;;3.28;2.97;;;;;;;;;;5072586;28;20270;-78
2023/05/31 02:58:25;;;;;;;3.90;2.97;;;;;;;;;;5062372;28;20197;-78
2023/05/31 03:00:53;;;;;;;3.58;3.25;;;;;;;;;;5067844;28;20193;-77
2023/05/31 03:03:21;;;;;;;2.92;2.67;;;;;;;;;;5073833;28;20203;-79
2023/05/31 03:05:49;;;;;;;3.20;2.90;;;;;;;;;;5072302;28;20246;-78
2023/05/31 03:08:16;;;;;;;5.10;2.85;;;;;;;;;;5071133;28;20227;-78
2023/05/31 03:10:45;;;;;;;3.53;2.78;;;;;;;;;;5066408;28;20221;-78
2023/05/31 03:13:12;;;;;;;4.20;3.45;;;;;;;;;;5075857;28;20298;-77
2023/05/31 03:15:40;;;;;;;3.85;2.55;;;;;;;;;;5073226;28;20208;-79
2023/05/31 03:18:07;;;;;;;3.47;2.80;;;;;;;;;;5076033;28;20238;-78
2023/05/31 03:20:34;;;;;;;3.38;2.67;;;;;;;;;;5080721;28;21054;-77
2023/05/31 03:23:02;;;;;;;4.28;2.85;;;;;;;;;;5066207;28;20284;-78
2023/05/31 03:25:30;;;;;;;3.80;3.00;;;;;;;;;;5074218;28;20197;-77
2023/05/31 03:27:58;;;;;;;2.85;2.08;;;;;;;;;;5077372;28;20204;-78
2023/05/31 03:30:26;;;;;;;2.65;2.40;;;;;;;;;;5073252;28;20213;-77
2023/05/31 03:32:53;;;;;;;2.58;2.38;;;;;;;;;;5077245;28;20214;-78
2023/05/31 03:35:21;;;;;;;3.78;2.75;;;;;;;;;;5083674;28;20233;-78
2023/05/31 03:37:48;;;;;;;4.97;2.72;;;;;;;;;;5080743;28;20221;-79
2023/05/31 03:40:16;;;;;;;3.05;2.00;;;;;;;;;;5071044;28;20220;-77
2023/05/31 03:42:44;;;;;;;2.38;2.17;;;;;;;;;;5075534;28;20204;-77
2023/05/31 03:45:12;;;;;;;2.85;2.58;;;;;;;;;;5085163;28;20188;-78
2023/05/31 03:47:40;;;;;;;4.55;2.70;;;;;;;;;;5078114;28;20196;-77
2023/05/31 03:50:08;;;;;;;3.05;2.05;;;;;;;;;;5072692;28;20300;-77
2023/05/31 03:52:37;;;;;;;3.28;2.20;;;;;;;;;;5069791;28;20232;-77
2023/05/31 03:55:05;;;;;;;2.70;2.50;;;;;;;;;;5071599;28;20197;-77
2023/05/31 03:57:33;;;;;;;2.42;2.05;;;;;;;;;;5070730;28;20240;-79
2023/05/31 04:00:00;;;;;;;3.33;2.83;;;;;;;;;;5072533;28;20235;-77
2023/05/31 04:02:29;;;;;;;3.33;2.17;;;;;;;;;;5071396;28;20196;-79
2023/05/31 04:04:56;;;;;;;3.22;2.38;;;;;;;;;;5072396;28;20582;-78
2023/05/31 04:07:24;;;;;;;4.60;2.90;;;;;;;;;;5073665;28;20208;-77
2023/05/31 04:09:51;;;;;;;2.63;2.40;;;;;;;;;;5072412;28;20226;-78
2023/05/31 04:12:19;;;;;;;2.70;2.47;;;;;;;;;;5071430;28;20729;-77
2023/05/31 04:14:46;;;;;;;2.63;2.40;;;;;;;;;;5072918;28;20294;-79
2023/05/31 04:17:14;;;;;;;3.00;2.13;;;;;;;;;;5072832;28;20213;-80
2023/05/31 04:19:42;;;;;;;2.30;2.10;;;;;;;;;;5072844;28;20700;-78
2023/05/31 04:22:10;;;;;;;2.90;2.28;;;;;;;;;;5070412;28;20203;-78
2023/05/31 04:24:37;;;;;;;2.72;2.10;;;;;;;;;;5078293;28;20602;-77
2023/05/31 04:27:06;;;;;;;2.35;2.15;;;;;;;;;;5070702;28;20197;-78
2023/05/31 04:29:34;;;;;;;2.38;2.17;;;;;;;;;;5085629;28;20224;-79
2023/05/31 04:32:01;;;;;;;2.35;2.10;;;;;;;;;;5071170;28;20661;-77
2023/05/31 04:34:30;;;;;;;2.10;2.00;;;;;;;;;;5070329;28;20203;-78
2023/05/31 04:36:59;;;;;;;2.10;1.90;;;;;;;;;;5069393;28;21914;-78
2023/05/31 04:39:27;;;;;;;2.05;1.77;;;;;;;;;;5070458;28;20212;-78
2023/05/31 04:41:55;;;;;;;2.80;2.53;;;;;;;;;;5071195;28;20635;-77
2023/05/31 04:44:23;;;;;;;2.45;2.05;;;;;;;;;;5080708;28;20291;-78
2023/05/31 04:46:50;;;;;;;2.65;2.25;;;;;;;;;;5070542;28;20205;-77
2023/05/31 04:49:18;;;;;;;2.75;2.50;;;;;;;;;;5066874;28;20332;-77
2023/05/31 04:51:46;;;;;;;3.33;2.38;;;;;;;;;;5080680;28;20212;-77
2023/05/31 04:54:15;;;;;;;2.55;2.10;;;;;;;;;;5070427;28;20658;-77
2023/05/31 04:56:42;;;;;;;3.17;2.60;;;;;;;;;;5062746;28;20560;-78
2023/05/31 04:59:10;;;;;;;2.40;2.03;;;;;;;;;;5071259;28;20216;-78
2023/05/31 05:01:39;;;;;;;4.40;2.78;;;;;;;;;;5069082;28;20201;-78
2023/05/31 05:04:06;;;;;;;2.03;1.90;;;;;;;;;;5065971;28;20639;-78
2023/05/31 05:06:37;;;;;;;2.90;2.45;;;;;;;;;;5071399;28;20203;-77
2023/05/31 05:09:05;;;;;;;2.28;2.08;;;;;;;;;;5067682;28;20218;-77
2023/05/31 05:11:34;;;;;;;3.25;2.40;;;;;;;;;;5069600;28;20197;-77
2023/05/31 05:14:01;;;;;;;3.33;2.67;;;;;;;;;;5068943;28;20664;-79
2023/05/31 05:16:29;;;;;;;6.30;3.05;;;;;;;;;;5081739;28;20194;-77
2023/05/31 05:18:57;;;;;;;2.78;2.35;;;;;;;;;;5080552;28;20307;-77
2023/05/31 05:21:24;;;;;;;4.85;2.55;;;;;;;;;;5072063;28;20258;-77
2023/05/31 05:23:51;;;;;;;2.60;2.40;;;;;;;;;;5063442;28;20200;-77
2023/05/31 05:26:19;;;;;;;2.60;2.40;;;;;;;;;;5066124;28;20676;-77
2023/05/31 05:28:48;;;;;;;3.45;2.40;;;;;;;;;;5068892;28;20220;-77
2023/05/31 05:31:15;;;;;;;2.33;2.08;;;;;;;;;;5071396;28;20207;-78
2023/05/31 05:33:43;;;;;;;2.58;2.38;;;;;;;;;;5071375;28;20193;-78
2023/05/31 05:36:10;;;;;;;3.28;2.80;;;;;;;;;;5067392;28;20197;-78
2023/05/31 05:38:38;;;;;;;2.28;1.92;;;;;;;;;;5059717;28;20769;-78
2023/05/31 05:41:10;;;;;;;2.67;2.40;;;;;;;;;;5070808;28;20629;-78
2023/05/31 05:43:38;;;;;;;3.85;2.42;;;;;;;;;;5072925;28;20648;-78
2023/05/31 05:46:07;;;;;;;2.85;2.60;;;;;;;;;;5083077;28;20200;-78
2023/05/31 05:48:34;;;;;;;2.78;2.42;;;;;;;;;;5058893;28;20271;-78
2023/05/31 05:51:03;;;;;;;4.05;2.42;;;;;;;;;;5070335;28;20594;-78
2023/05/31 05:53:30;;;;;;;2.65;2.45;;;;;;;;;;5068949;28;20580;-77
2023/05/31 05:55:57;;;;;;;4.57;2.72;;;;;;;;;;5070662;28;20223;-78
2023/05/31 05:58:25;;;;;;;5.20;2.47;;;;;;;;;;5075586;28;20228;-78
2023/05/31 06:00:52;;;;;;;3.30;2.78;;;;;;;;;;5074061;28;20586;-77
2023/05/31 06:03:23;;;;;;;3.70;3.28;;;;;;;;;;5074218;28;20193;-78
2023/05/31 06:05:50;;;;;;;3.72;2.70;;;;;;;;;;5071681;28;20201;-78
2023/05/31 06:08:18;;;;;;;3.60;2.95;;;;;;;;;;5068859;28;20202;-78
2023/05/31 06:10:45;;;;;;;3.72;3.17;;;;;;;;;;5076467;22;20314;-78
2023/05/31 06:13:13;;;;;;;3.63;2.67;;;;;;;;;;5069377;28;20936;-78
2023/05/31 06:15:41;;;;;;;2.85;2.17;;;;;;;;;;5064221;28;20201;-80
2023/05/31 06:18:09;;;;;;;2.88;2.58;;;;;;;;;;5071214;28;20298;-77
2023/05/31 06:20:37;;;;;;;4.43;2.45;;;;;;;;;;5046602;28;20271;-79
2023/05/31 06:23:05;;;;;;;3.22;2.10;;;;;;;;;;5051203;28;20221;-78
2023/05/31 06:25:35;;;;;;;3.65;2.95;;;;;;;;;;5045835;28;20210;-80
2023/05/31 06:28:03;;;;;;;3.25;2.17;;;;;;;;;;5043951;28;20197;-77
2023/05/31 06:30:31;;;;;;;14.30;2.85;;;;;;;;;;5044900;28;20660;-80
2023/05/31 06:32:58;;;;;;;2.95;2.20;;;;;;;;;;5051746;28;20593;-78
2023/05/31 06:35:26;;;;;;;4.03;2.08;;;;;;;;;;5051227;28;20194;-79
2023/05/31 06:37:54;;;;;;;1.77;1.67;;;;;;;;;;5049882;28;20198;-80
2023/05/31 06:40:22;;;;;;;3.05;2.20;;;;;;;;;;5051630;28;20657;-78
2023/05/31 06:42:50;;;;;;;6.55;3.88;;;;;;;;;;5048659;28;20212;-80
2023/05/31 06:45:17;;;;;;;4.35;2.60;;;;;;;;;;5051380;28;20233;-79
2023/05/31 06:47:45;;;;;;;4.35;2.67;;;;;;;;;;5047292;28;20723;-79
2023/05/31 06:50:12;;;;;;;5.82;3.03;;;;;;;;;;5048641;28;20299;-78
2023/05/31 06:52:41;;;;;;;2.72;2.05;;;;;;;;;;5049331;28;20194;-78
2023/05/31 06:55:11;;;;;;;4.13;2.47;;;;;;;;;;5052542;28;20650;-78
2023/05/31 06:57:38;;;;;;;3.10;2.15;;;;;;;;;;5045958;28;20205;-79
2023/05/31 07:00:08;;;;;;;3.08;2.30;;;;;;;;;;5049922;28;20658;-80
2023/05/31 07:02:35;;;;;;;2.15;1.95;;;;;;;;;;5037793;28;20715;-78
2023/05/31 07:05:03;;;;;;;2.67;2.30;;;;;;;;;;5048227;28;20679;-80
2023/05/31 07:07:32;;;;;;;2.13;1.98;;;;;;;;;;5052335;28;20198;-81
2023/05/31 07:10:00;;;;;;;2.97;2.47;;;;;;;;;;5053920;28;20617;-80
2023/05/31 07:12:29;;;;;;;2.53;2.30;;;;;;;;;;5054883;28;20194;-80
2023/05/31 07:14:57;;;;;;;2.33;2.10;;;;;;;;;;5054042;28;20222;-78
2023/05/31 07:17:25;;;;;;;1.70;1.60;;;;;;;;;;5040874;28;20222;-79
2023/05/31 07:19:56;;;;;;;2.75;2.25;;;;;;;;;;5050853;28;20701;-80
2023/05/31 07:22:24;;;;;;;2.70;2.40;;;;;;;;;;5054092;28;20244;-80
2023/05/31 07:24:52;;;;;;;5.57;3.45;;;;;;;;;;5050342;28;20588;-80
2023/05/31 07:27:23;;;;;;;4.70;3.10;;;;;;;;;;5051257;28;20275;-79
2023/05/31 07:29:52;;;;;;;4.35;2.30;;;;;;;;;;5054088;28;20267;-80
2023/05/31 07:32:20;;;;;;;3.25;2.30;;;;;;;;;;5054529;28;20277;-79
2023/05/31 07:34:47;;;;;;;3.30;2.03;;;;;;;;;;5051854;28;20202;-80
2023/05/31 07:37:14;;;;;;;2.83;2.08;;;;;;;;;;5052689;28;20225;-80
2023/05/31 07:39:42;;;;;;;2.50;2.30;;;;;;;;;;5034628;28;20230;-81
2023/05/31 07:42:10;;;;;;;2.38;2.00;;;;;;;;;;5051993;28;20201;-80
2023/05/31 07:44:37;;;;;;;2.80;2.60;;;;;;;;;;5052228;28;20202;-80
2023/05/31 07:47:07;;;;;;;3.22;2.58;;;;;;;;;;5048424;28;20191;-80
2023/05/31 07:49:34;;;;;;;5.25;3.63;;;;;;;;;;5047941;28;20229;-81
2023/05/31 07:52:02;;;;;;;3.15;2.17;;;;;;;;;;5055075;28;20834;-79
2023/05/31 07:54:29;;;;;;;1.80;1.70;;;;;;;;;;5050889;28;20292;-81
2023/05/31 07:56:57;;;;;;;2.20;1.85;;;;;;;;;;5047448;28;20198;-79
2023/05/31 07:59:24;;;;;;;4.18;2.60;;;;;;;;;;5045877;28;20303;-81
2023/05/31 08:01:52;;;;;;;2.30;2.10;;;;;;;;;;5055065;28;20232;-79
2023/05/31 08:04:21;;;;;;;2.38;2.10;;;;;;;;;;5053364;28;20205;-79
2023/05/31 08:06:48;;;;;;;3.20;1.95;;;;;;;;;;5059361;28;20198;-78
2023/05/31 08:09:16;;;;;;;2.00;1.80;;;;;;;;;;5065701;28;20232;-78
2023/05/31 08:11:43;;;;;;;2.20;2.00;;;;;;;;;;5065535;28;20202;-78
2023/05/31 08:14:12;;;;;;;3.72;2.28;;;;;;;;;;5064301;28;20233;-80
2023/05/31 08:16:39;;;;;;;2.90;2.10;;;;;;;;;;5062386;28;20198;-79
2023/05/31 08:19:07;;;;;;;2.85;2.35;;;;;;;;;;5062232;28;20225;-81
2023/05/31 08:21:36;;;;;;;2.22;2.03;;;;;;;;;;5054234;28;20236;-82
2023/05/31 08:24:05;;;;;;;2.67;1.40;;;;;;;;;;5056740;28;20200;-80
2023/05/31 08:26:33;;;;;;;1.95;1.70;;;;;;;;;;5054697;28;20212;-80
2023/05/31 08:29:01;;;;;;;2.58;2.35;;;;;;;;;;5046578;28;20313;-80
2023/05/31 08:31:28;;;;;;;3.92;2.45;;;;;;;;;;5054662;28;20232;-81
2023/05/31 08:33:57;;;;;;;5.65;2.05;;;;;;;;;;5036463;28;20225;-82
2023/05/31 08:36:26;;;;;;;4.55;2.70;;;;;;;;;;5045764;28;20225;-81
2023/05/31 08:38:55;;;;;;;4.68;2.15;;;;;;;;;;5051358;28;20208;-80
2023/05/31 08:41:25;;;;;;;2.38;1.98;;;;;;;;;;5052325;28;20226;-82
2023/05/31 08:43:52;;;;;;;2.95;2.20;;;;;;;;;;5051643;28;20665;-81
2023/05/31 08:46:21;;;;;;;2.63;1.90;;;;;;;;;;5049109;28;20276;-81
2023/05/31 08:49:00;;;;;;;2.35;2.20;;;;;;;;;;5054055;28;20225;-82
2023/05/31 08:51:27;;;;;;;2.22;1.70;;;;;;;;;;5034649;28;20204;-83
2023/05/31 08:53:58;;;;;;;1.73;1.60;;;;;;;;;;5043305;28;21026;-80
2023/05/31 08:56:27;;;;;;;2.67;1.77;;;;;;;;;;5053629;28;20717;-81
2023/05/31 08:58:56;;;;;;;3.22;2.50;;;;;;;;;;5044281;28;20202;-84
2023/05/31 09:01:24;;;;;;;2.58;2.38;;;;;;;;;;5050407;28;20271;-80
2023/05/31 09:03:52;;;;;;;2.75;1.60;;;;;;;;;;5051047;28;20194;-81
2023/05/31 09:06:19;;;;;;;1.85;1.52;;;;;;;;;;5052674;28;20668;-80
2023/05/31 09:08:48;;;;;;;1.83;1.73;;;;;;;;;;5052601;28;20288;-79
2023/05/31 09:11:17;;;;;;;2.83;1.80;;;;;;;;;;5051461;28;20205;-81
2023/05/31 09:13:45;;;;;;;2.67;2.47;;;;;;;;;;5038423;28;20261;-82
2023/05/31 09:16:13;;;;;;;1.75;1.65;;;;;;;;;;5052999;28;20666;-80
2023/05/31 09:18:41;;;;;;;2.35;1.67;;;;;;;;;;5052258;28;20737;-81
2023/05/31 09:21:10;;;;;;;3.45;2.05;;;;;;;;;;5049923;28;20843;-81
2023/05/31 09:23:38;;;;;;;2.00;1.80;;;;;;;;;;5052534;28;20205;-80
2023/05/31 09:26:08;;;;;;;3.13;1.90;;;;;;;;;;5051408;28;20193;-80
2023/05/31 09:28:37;;;;;;;2.17;1.60;;;;;;;;;;5051602;28;20239;-80
2023/05/31 09:31:06;;;;;;;1.88;1.17;;;;;;;;;;5053008;28;20241;-82
2023/05/31 09:33:44;;;;;;;2.05;1.42;;;;;;;;;;5053349;28;20206;-82
2023/05/31 09:36:14;;;;;;;1.65;1.40;;;;;;;;;;5050989;28;20193;-82
2023/05/31 09:38:43;;;;;;;2.80;2.00;;;;;;;;;;5039929;28;20657;-81
2023/05/31 09:41:18;;;;;;;1.73;1.60;;;;;;;;;;5041814;28;20245;-81
2023/05/31 09:43:49;;;;;;;2.10;1.67;;;;;;;;;;5038976;28;20296;-80
2023/05/31 09:46:20;;;;;;;1.60;1.50;;;;;;;;;;5039933;28;20202;-81
2023/05/31 09:48:59;;;;;;;2.03;1.55;;;;;;;;;;5042461;28;20194;-82
2023/05/31 09:51:27;;;;;;;1.35;1.25;;;;;;;;;;5047807;28;20584;-81
2023/05/31 09:53:56;;;;;;;2.45;1.80;;;;;;;;;;5045980;28;20207;-81
2023/05/31 09:56:25;;;;;;;1.58;1.48;;;;;;;;;;5052957;28;20630;-80
2023/05/31 09:58:56;;;;;;;2.05;1.83;;;;;;;;;;5044929;28;20198;-80
2023/05/31 10:01:24;;;;;;;4.82;1.98;;;;;;;;;;5050014;28;20221;-82
2023/05/31 10:03:51;;;;;;;3.33;1.98;;;;;;;;;;5051221;28;20200;-81
2023/05/31 10:06:21;;;;;;;2.30;1.55;;;;;;;;;;5051893;28;20204;-81
2023/05/31 10:08:48;;;;;;;1.92;1.75;;;;;;;;;;5050721;28;20650;-82
2023/05/31 10:11:18;;;;;;;2.25;1.80;;;;;;;;;;5043371;28;20212;-81
2023/05/31 10:13:48;;;;;;;1.50;1.40;;;;;;;;;;5036395;28;20216;-82
2023/05/31 10:16:17;;;;;;;2.20;1.98;;;;;;;;;;5052137;28;20288;-82
2023/05/31 10:18:46;;;;;;;1.92;1.52;;;;;;;;;;5050171;28;20569;-83
2023/05/31 10:21:22;;;;;;;1.60;1.50;;;;;;;;;;5039809;28;20225;-82
2023/05/31 10:23:58;;;;;;;1.80;1.70;;;;;;;;;;5039734;28;20203;-82
2023/05/31 10:26:33;;;;;;;1.92;1.75;;;;;;;;;;5052079;28;20221;-83
2023/05/31 10:29:09;;;;;;;2.38;1.70;;;;;;;;;;5041962;28;20213;-83
2023/05/31 10:31:45;;;;;;;2.20;1.85;;;;;;;;;;5039466;28;20292;-83
2023/05/31 10:34:20;;;;;;;2.35;1.50;;;;;;;;;;5049104;28;20696;-83
2023/05/31 10:36:47;;;;;;;2.13;1.85;;;;;;;;;;5046605;28;20196;-82
2023/05/31 10:39:23;;;;;;;1.45;1.35;;;;;;;;;;5061948;28;20218;-83
2023/05/31 10:41:56;;;;;;;1.48;1.38;;;;;;;;;;5055503;28;20693;-82
2023/05/31 10:44:33;;;;;;;2.33;1.55;;;;;;;;;;5052321;28;20197;-84
2023/05/31 10:47:07;;;;;;;3.90;2.45;;;;;;;;;;5055901;28;20281;-84
2023/05/31 10:49:36;;;;;;;1.33;1.23;;;;;;;;;;5055430;28;20243;-83
2023/05/31 10:52:09;;;;;;;1.67;1.50;;;;;;;;;;5053071;28;20261;-83
2023/05/31 10:54:37;;;;;;;1.50;1.40;;;;;;;;;;5046966;28;20277;-82
2023/05/31 10:57:07;;;;;;;5.00;2.05;;;;;;;;;;5056232;28;20212;-82
2023/05/31 10:59:45;;;;;;;1.63;1.30;;;;;;;;;;5045131;28;20229;-81
2023/05/31 11:02:15;;;;;;;1.52;1.42;;;;;;;;;;5041688;28;20305;-81
2023/05/31 11:04:42;;;;;;;1.50;1.40;;;;;;;;;;5042944;28;20222;-82
2023/05/31 11:07:17;;;;;;;1.40;1.30;;;;;;;;;;5045681;28;20198;-82
2023/05/31 11:09:58;;;;;;;1.73;1.63;;;;;;;;;;5052467;28;20225;-82
2023/05/31 11:12:34;;;;;;;1.48;1.33;;;;;;;;;;5062003;28;20226;-84
2023/05/31 11:15:03;;;;;;;2.20;1.70;;;;;;;;;;5069578;28;20231;-83
2023/05/31 11:17:42;;;;;;;1.42;1.23;;;;;;;;;;5079480;28;20196;-84
2023/05/31 11:20:17;;;;;;;2.63;1.92;;;;;;;;;;5075677;28;20227;-82
2023/05/31 11:22:45;;;;;;;2.83;1.55;;;;;;;;;;5062269;28;20734;-83
2023/05/31 11:25:21;;;;;;;1.25;1.15;;;;;;;;;;5060507;28;20281;-83
2023/05/31 11:27:49;;;;;;;1.35;1.25;;;;;;;;;;5058961;28;20573;-82
2023/05/31 11:30:17;;;;;;;1.70;1.60;;;;;;;;;;5058187;28;20719;-84
2023/05/31 11:32:59;;;;;;;1.33;1.23;;;;;;;;;;5058871;28;20285;-83
2023/05/31 11:35:27;;;;;;;2.15;1.80;;;;;;;;;;5062393;28;20692;-83
2023/05/31 11:38:06;;;;;;;1.75;1.65;;;;;;;;;;5054111;28;20202;-83
2023/05/31 11:40:35;;;;;;;1.58;1.48;;;;;;;;;;5050074;28;20293;-83
2023/05/31 11:43:11;;;;;;;1.83;1.52;;;;;;;;;;5061532;28;20663;-83
2023/05/31 11:45:48;;;;;;;1.33;1.27;;;;;;;;;;5060564;28;20190;-83
2023/05/31 11:48:36;;;;;;;1.30;1.20;;;;;;;;;;5057688;28;20205;-83
2023/05/31 11:51:04;;;;;;;1.27;1.20;;;;;;;;;;5052828;28;20308;-82
2023/05/31 11:53:31;;;;;;;1.48;1.38;;;;;;;;;;5051661;28;20200;-83
2023/05/31 11:55:59;;;;;;;2.50;1.45;;;;;;;;;;5061893;28;20721;-81
2023/05/31 11:58:28;;;;;;;1.67;1.35;;;;;;;;;;5057004;28;20682;-80
2023/05/31 12:01:00;;;;;;;1.55;1.45;;;;;;;;;;5055628;28;20214;-83
2023/05/31 12:03:30;;;;;;;3.45;1.60;;;;;;;;;;5061305;28;20228;-82
2023/05/31 12:06:01;;;;;;;1.92;1.60;;;;;;;;;;5060735;28;20277;-81
2023/05/31 12:08:29;;;;;;;1.65;1.55;;;;;;;;;;5054725;28;20575;-82
2023/05/31 12:11:04;;;;;;;2.53;1.65;;;;;;;;;;5102593;22;20271;-80
2023/05/31 12:13:31;;;;;;;1.67;1.25;;;;;;;;;;5084713;28;20210;-80
2023/05/31 12:15:59;;;;;;;1.50;1.40;;;;;;;;;;5096360;28;20275;-81
2023/05/31 12:18:30;;;;;;;1.92;1.50;;;;;;;;;;5094868;28;20207;-80
2023/05/31 12:20:57;;;;;;;2.22;1.55;;;;;;;;;;5098012;28;20216;-80
2023/05/31 12:23:24;;;;;;;2.13;1.50;;;;;;;;;;5096920;28;20594;-80
2023/05/31 12:25:52;;;;;;;2.17;1.98;;;;;;;;;;5095877;28;20222;-81
2023/05/31 12:28:21;;;;;;;2.30;1.80;;;;;;;;;;5092662;28;20205;-80
2023/05/31 12:30:51;;;;;;;1.73;1.33;;;;;;;;;;5086956;28;20592;-80
2023/05/31 12:33:19;;;;;;;1.70;1.50;;;;;;;;;;5095176;28;20676;-80
2023/05/31 12:35:49;;;;;;;1.92;1.48;;;;;;;;;;5094235;28;21426;-80
2023/05/31 12:38:17;;;;;;;1.83;1.42;;;;;;;;;;5089108;28;20200;-81
2023/05/31 12:40:45;;;;;;;2.20;1.60;;;;;;;;;;5086727;28;20220;-80
2023/05/31 12:43:14;;;;;;;2.00;1.70;;;;;;;;;;5092822;28;20303;-80
2023/05/31 12:45:42;;;;;;;3.40;1.63;;;;;;;;;;5085707;28;20690;-81
2023/05/31 12:48:11;;;;;;;2.40;1.40;;;;;;;;;;5089544;28;20214;-80
2023/05/31 12:50:50;;;;;;;1.38;1.15;;;;;;;;;;5094167;28;20213;-80
2023/05/31 12:53:18;;;;;;;1.60;1.50;;;;;;;;;;5094868;28;20207;-80
2023/05/31 12:55:47;;;;;;;2.22;1.95;;;;;;;;;;5094413;28;20227;-80
2023/05/31 12:58:14;;;;;;;2.97;1.90;;;;;;;;;;5092982;28;20624;-80
2023/05/31 13:00:43;;;;;;;5.30;2.00;;;;;;;;;;5092249;28;20544;-79
2023/05/31 13:03:13;;;;;;;1.48;1.38;;;;;;;;;;5093642;28;20227;-79
2023/05/31 13:05:40;;;;;;;1.45;1.35;;;;;;;;;;5090878;28;20208;-80
2023/05/31 13:08:09;;;;;;;1.63;1.42;;;;;;;;;;5090830;28;20287;-80
2023/05/31 13:10:37;;;;;;;1.58;1.30;;;;;;;;;;5087587;28;20236;-80
2023/05/31 13:13:05;;;;;;;1.60;1.50;;;;;;;;;;5091607;28;20558;-80
2023/05/31 13:15:33;;;;;;;1.35;1.25;;;;;;;;;;5084893;28;20284;-80
2023/05/31 13:18:00;;;;;;;3.00;1.45;;;;;;;;;;5085760;28;20203;-80
2023/05/31 13:20:27;;;;;;;3.15;1.90;;;;;;;;;;5091836;28;20747;-79
2023/05/31 13:22:55;;;;;;;1.80;1.70;;;;;;;;;;5091376;28;20212;-79
2023/05/31 13:25:24;;;;;;;2.38;1.73;;;;;;;;;;5088176;28;20668;-79
2023/05/31 13:27:51;;;;;;;2.70;2.00;;;;;;;;;;5086888;28;20299;-79
2023/05/31 13:30:19;;;;;;;2.03;1.80;;;;;;;;;;5088265;28;20632;-80
2023/05/31 13:32:46;;;;;;;2.35;1.83;;;;;;;;;;5089863;28;20202;-78
2023/05/31 13:35:14;;;;;;;1.65;1.55;;;;;;;;;;5090338;28;20201;-78
2023/05/31 13:37:42;;;;;;;1.52;1.25;;;;;;;;;;5084380;28;20196;-79
2023/05/31 13:40:10;;;;;;;1.50;1.40;;;;;;;;;;5089814;28;20222;-79
2023/05/31 13:42:39;;;;;;;2.17;1.92;;;;;;;;;;5090533;28;20299;-79
2023/05/31 13:45:08;;;;;;;2.10;1.88;;;;;;;;;;5091149;28;20202;-79
2023/05/31 13:47:36;;;;;;;1.42;1.33;;;;;;;;;;5089314;28;20260;-79
2023/05/31 13:50:03;;;;;;;1.73;1.45;;;;;;;;;;5091521;28;20223;-79
2023/05/31 13:52:31;;;;;;;1.60;1.50;;;;;;;;;;5090914;28;20192;-80
2023/05/31 13:54:59;;;;;;;1.98;1.80;;;;;;;;;;5091208;28;20199;-79
2023/05/31 13:57:27;;;;;;;1.30;1.30;;;;;;;;;;5091704;28;20687;-79
2023/05/31 13:59:57;;;;;;;2.40;1.60;;;;;;;;;;5090924;28;20230;-79
2023/05/31 14:02:24;;;;;;;3.95;1.92;;;;;;;;;;5092055;28;20652;-80
2023/05/31 14:04:52;;;;;;;2.20;1.60;;;;;;;;;;5090973;28;20670;-79
2023/05/31 14:07:20;;;;;;;1.70;1.60;;;;;;;;;;5091036;28;20188;-79
2023/05/31 14:09:47;;;;;;;1.70;1.60;;;;;;;;;;5090286;28;20642;-80
2023/05/31 14:12:22;;;;;;;2.50;1.92;;;;;;;;;;5093736;28;20196;-79
2023/05/31 14:14:49;;;;;;;1.60;1.50;;;;;;;;;;5093315;28;20204;-79
2023/05/31 14:17:18;;;;;;;2.15;1.70;;;;;;;;;;5094941;28;20196;-79
2023/05/31 14:19:46;;;;;;;1.90;1.65;;;;;;;;;;5094375;28;20212;-79
2023/05/31 14:22:14;;;;;;;1.90;1.80;;;;;;;;;;5094254;28;20683;-80
2023/05/31 14:24:41;;;;;;;1.58;1.40;;;;;;;;;;5093133;28;20739;-80
2023/05/31 14:27:09;;;;;;;2.03;1.88;;;;;;;;;;5092010;28;20202;-80
2023/05/31 14:29:37;;;;;;;1.40;1.33;;;;;;;;;;5088781;28;20311;-79
2023/05/31 14:32:05;;;;;;;2.00;1.42;;;;;;;;;;5094762;28;20220;-80
2023/05/31 14:34:34;;;;;;;1.67;1.58;;;;;;;;;;5095540;28;20195;-80
2023/05/31 14:37:02;;;;;;;1.58;1.48;;;;;;;;;;5096078;28;20204;-79
2023/05/31 14:39:29;;;;;;;1.52;1.42;;;;;;;;;;5094866;28;20285;-80
2023/05/31 14:41:56;;;;;;;1.77;1.67;;;;;;;;;;5093174;28;20228;-80
2023/05/31 14:44:24;;;;;;;1.77;1.67;;;;;;;;;;5088073;28;20224;-80
2023/05/31 14:46:52;;;;;;;1.75;1.50;;;;;;;;;;5088143;28;20192;-80
2023/05/31 14:49:19;;;;;;;1.63;1.52;;;;;;;;;;5094958;28;20239;-80
2023/05/31 14:51:49;;;;;;;1.27;1.15;;;;;;;;;;5094070;28;20193;-81
2023/05/31 14:54:18;;;;;;;1.27;1.17;;;;;;;;;;5086609;28;20197;-80
2023/05/31 14:56:46;;;;;;;2.35;2.05;;;;;;;;;;5095412;28;20694;-80